Time;durP1;ratioP1;P1;durP2;ratioP2;P2;SDS_P1;SDS_P2;PMS_P1;PMS_P2;Temp;Humidity;BMP_temperature;BMP_pressure;BME280_temperature;BME280_humidity;BME280_pressure;Samples;Min_cycle;Max_cycle;Signal;HPM_P1;HPM_P2
2021/12/26 00:02:32;;;;;;;;;;;;;;;;;;;;;
2021/12/26 00:08:52;;;;;;;2.13;1.33;;;;;;;0.96;79.78;91591.75;4942921;29;20062;-91
2021/12/26 00:12:30;;;;;;;2.15;1.30;;;;;;;0.90;79.41;91583.25;4937642;29;20043;-92
2021/12/26 00:15:49;;;;;;;;;;;;;;;;;;;;;
2021/12/26 00:18:33;;;;;;;1.95;1.27;;;;;;;0.74;79.51;91558.38;4956761;29;20488;-91
2021/12/26 00:21:30;;;;;;;3.00;1.70;;;;;;;0.72;79.16;91557.84;4957065;29;20043;-91
2021/12/26 00:24:53;;;;;;;;;;;;;;;;;;;;;
2021/12/26 00:28:15;;;;;;;;;;;;;;;;;;;;;
2021/12/26 00:31:49;;;;;;;3.30;1.50;;;;;;;1.12;79.84;91614.00;4939094;29;20051;-92
2021/12/26 00:34:51;;;;;;;;;;;;;;;;;;;;;
2021/12/26 00:44:39;;;;;;;;;;;;;;;;;;;;;
2021/12/26 00:50:32;;;;;;;3.80;1.58;;;;;;;1.05;81.78;91587.69;4915437;29;20138;-92
2021/12/26 00:56:34;;;;;;;3.03;1.60;;;;;;;1.37;80.79;91623.69;4932833;29;20397;-91
2021/12/26 01:03:00;;;;;;;3.05;1.45;;;;;;;1.33;80.39;91601.22;4879865;29;20514;-93
2021/12/26 01:12:06;;;;;;;2.60;1.58;;;;;;;1.12;80.63;91569.44;4879327;29;19920;-92
2021/12/26 01:15:47;;;;;;;2.80;1.52;;;;;;;1.33;81.15;91602.03;4868166;29;20049;-91
2021/12/26 01:18:49;;;;;;;;;;;;;;;;;;;;;
2021/12/26 01:21:52;;;;;;;;;;;;;;;;;;;;;
2021/12/26 01:24:59;;;;;;;;;;;;;;;;;;;;;
2021/12/26 01:28:23;;;;;;;;;;;;;;;;;;;;;
2021/12/26 01:31:28;;;;;;;;;;;;;;;;;;;;;
2021/12/26 01:34:43;;;;;;;2.65;1.58;;;;;;;1.32;80.69;91564.34;4879217;29;20053;-92
2021/12/26 01:38:40;;;;;;;4.28;1.50;;;;;;;1.53;81.10;91590.22;4949698;28;20066;-91
2021/12/26 01:42:01;;;;;;;2.13;1.27;;;;;;;1.34;81.31;91564.88;4976191;28;20114;-92
2021/12/26 01:45:13;;;;;;;2.00;1.20;;;;;;;1.42;81.23;91574.72;4961221;28;20089;-92
2021/12/26 01:48:17;;;;;;;3.80;1.50;;;;;;;1.44;81.13;91588.16;4961291;28;20042;-91
2021/12/26 01:51:14;;;;;;;;;;;;;;;;;;;;;
2021/12/26 01:54:04;;;;;;;2.03;1.20;;;;;;;1.69;80.67;91609.91;4958659;28;20039;-92
2021/12/26 01:57:50;;;;;;;;;;;;;;;;;;;;;
2021/12/26 02:00:30;;;;;;;3.25;1.40;;;;;;;1.87;80.15;91635.25;4969551;28;20480;-90
2021/12/26 02:03:45;;;;;;;4.03;1.60;;;;;;;1.86;80.38;91630.34;4962070;28;20507;-92
2021/12/26 02:10:47;;;;;;;1.83;1.10;;;;;;;1.58;80.76;91591.03;4960622;28;20047;-91
2021/12/26 02:14:06;;;;;;;;;;;;;;;;;;;;;
2021/12/26 02:17:29;;;;;;;1.88;1.30;;;;;;;1.43;81.28;91571.09;4959252;28;20098;-92
2021/12/26 02:24:53;;;;;;;;;;;;;;;;;;;;;
2021/12/26 02:27:46;;;;;;;;;;;;;;;;;;;;;
2021/12/26 02:31:01;;;;;;;;;;;;;;;;;;;;;
2021/12/26 02:33:42;;;;;;;2.58;1.42;;;;;;;1.41;82.26;91567.22;4950022;28;20585;-92
2021/12/26 02:37:17;;;;;;;2.38;1.27;;;;;;;1.42;82.59;91571.38;4951113;29;20047;-94
2021/12/26 02:40:13;;;;;;;;;;;;;;;;;;;;;
2021/12/26 02:43:33;;;;;;;2.15;1.40;;;;;;;1.52;83.23;91575.78;4954532;29;20043;-92
2021/12/26 02:47:07;;;;;;;1.45;1.02;;;;;;;1.74;83.79;91601.41;4941746;29;20058;-92
2021/12/26 02:53:20;;;;;;;;;;;;;;;;;;;;;
2021/12/26 02:56:35;;;;;;;;;;;;;;;;;;;;;
2021/12/26 02:59:32;;;;;;;2.45;1.45;;;;;;;1.81;82.81;91587.22;4949346;29;20052;-92
2021/12/26 03:02:55;;;;;;;;;;;;;;;;;;;;;
2021/12/26 03:06:19;;;;;;;2.73;1.20;;;;;;;1.81;82.76;91584.66;4973022;28;20054;-92
2021/12/26 03:09:44;;;;;;;2.85;1.50;;;;;;;1.62;82.79;91558.53;4965210;28;20314;-94
2021/12/26 03:16:22;;;;;;;;;;;;;;;;;;;;;
2021/12/26 03:19:36;;;;;;;;;;;;;;;;;;;;;
2021/12/26 03:23:03;;;;;;;;;;;;;;;;;;;;;
2021/12/26 03:25:45;;;;;;;5.35;1.40;;;;;;;1.59;83.16;91540.22;4976791;28;20050;-93
2021/12/26 03:28:57;;;;;;;;;;;;;;;;;;;;;
2021/12/26 03:31:53;;;;;;;;;;;;;;;;;;;;;
2021/12/26 03:35:36;;;;;;;;;;;;;;;;;;;;;
2021/12/26 03:38:35;;;;;;;;;;;;;;;;;;;;;
2021/12/26 03:42:23;;;;;;;2.00;1.20;;;;;;;1.75;83.65;91562.44;4964436;28;20436;-92
2021/12/26 03:45:51;;;;;;;;;;;;;;;;;;;;;
2021/12/26 03:49:32;;;;;;;;;;;;;;;;;;;;;
2021/12/26 03:52:56;;;;;;;;;;;;;;;;;;;;;
2021/12/26 03:56:29;;;;;;;2.08;1.38;;;;;;;2.09;83.83;91585.22;4965852;28;20050;-91
2021/12/26 03:59:48;;;;;;;2.28;1.40;;;;;;;1.92;84.17;91562.22;4922713;29;20079;-91
2021/12/26 04:06:34;;;;;;;2.65;1.10;;;;;;;2.17;84.09;91595.06;4962767;28;20412;-90
2021/12/26 04:09:23;;;;;;;3.63;1.55;;;;;;;1.77;84.04;91539.72;4976594;28;20038;-92
2021/12/26 04:12:36;;;;;;;;;;;;;;;;;;;;;
2021/12/26 04:16:20;;;;;;;;;;;;;;;;;;;;;
2021/12/26 04:21:46;;;;;;;2.40;1.33;;;;;;;1.90;84.81;91568.69;4971482;28;20051;-92
2021/12/26 04:28:11;;;;;;;2.38;1.40;;;;;;;1.60;84.69;91534.00;4953185;29;20512;-91
2021/12/26 04:31:50;;;;;;;;;;;;;;;;;;;;;
2021/12/26 04:34:34;;;;;;;;;;;;;;;1.96;84.83;91586.50;4966014;28;20058;-92
2021/12/26 04:37:41;;;;;;;;;;;;;;;;;;;;;
2021/12/26 04:40:36;;;;;;;1.95;1.20;;;;;;;1.56;84.92;91535.56;4952394;28;20130;-92
2021/12/26 04:44:05;;;;;;;2.00;1.10;;;;;;;1.63;85.20;91554.16;4957510;28;20083;-92
2021/12/26 04:47:14;;;;;;;3.80;1.55;;;;;;;1.85;85.29;91588.28;4956785;29;20039;-91
2021/12/26 04:50:48;;;;;;;;;;;;;;;;;;;;;
2021/12/26 04:57:19;;;;;;;1.92;1.20;;;;;;;1.64;85.11;91566.81;4944539;28;20058;-92
2021/12/26 05:04:17;;;;;;;2.40;1.35;;;;;;;1.70;84.84;91564.25;4975255;28;20046;-91
2021/12/26 05:07:19;;;;;;;;;;;;;;;;;;;;;
2021/12/26 05:10:31;;;;;;;;;;;;;;;;;;;;;
2021/12/26 05:13:32;;;;;;;5.78;1.20;;;;;;;1.65;85.38;91572.75;4959122;28;20042;-92
2021/12/26 05:16:41;;;;;;;2.30;1.30;;;;;;;1.68;85.55;91592.88;4977923;28;20092;-91
2021/12/26 05:19:46;;;;;;;1.77;1.10;;;;;;;1.51;85.80;91561.31;4975493;28;20045;-92
2021/12/26 05:22:50;;;;;;;2.10;1.20;;;;;;;1.22;85.47;91525.66;4949434;28;20039;-92
2021/12/26 05:26:06;;;;;;;2.47;1.30;;;;;;;1.27;85.53;91543.72;4959022;28;20102;-92
2021/12/26 05:36:05;;;;;;;1.63;1.05;;;;;;;1.14;85.66;91524.31;4955865;28;20055;-91
2021/12/26 05:39:00;;;;;;;;;;;;;;;;;;;;;
2021/12/26 05:42:12;;;;;;;;;;;;;;;;;;;;;
2021/12/26 05:51:23;;;;;;;;;;;;;;;;;;;;;
2021/12/26 05:54:56;;;;;;;1.67;1.20;;;;;;;1.16;86.13;91534.38;4965905;28;20049;-92
2021/12/26 05:58:11;;;;;;;;;;;;;;;;;;;;;
2021/12/26 06:04:36;;;;;;;2.85;1.50;;;;;;;1.45;86.60;91587.09;4933102;29;20062;-93
2021/12/26 06:07:50;;;;;;;2.47;1.10;;;;;;;1.24;86.60;91551.97;4955689;29;20045;-92
2021/12/26 06:12:08;;;;;;;;;;;;;;;;;;;;;
2021/12/26 06:21:28;;;;;;;;;;;;;;;;;;;;;
2021/12/26 06:24:43;;;;;;;;;;;;;;;;;;;;;
2021/12/26 06:31:19;;;;;;;2.70;1.50;;;;;;;1.34;86.91;91575.19;4971116;28;20066;-92
2021/12/26 06:34:41;;;;;;;3.47;1.38;;;;;;;1.00;86.96;91529.16;4946985;28;20079;-91
2021/12/26 06:37:49;;;;;;;2.28;1.33;;;;;;;1.29;86.92;91575.19;4961920;28;20367;-91
2021/12/26 06:52:10;;;;;;;;;;;;;;;;;;;;;
2021/12/26 07:14:17;;;;;;;;;;;;;;;;;;;;;
2021/12/26 07:17:04;;;;;;;;;;;;;;;;;;;;;
2021/12/26 07:23:24;;;;;;;;;;;;;;;;;;;;;
2021/12/26 07:26:09;;;;;;;9.75;2.00;;;;;;;1.67;85.48;91617.13;4983475;28;20051;-85
2021/12/26 07:29:11;;;;;;;8.65;1.90;;;;;;;1.55;85.02;91585.59;4973465;28;20033;-86
2021/12/26 07:31:44;;;;;;;5.43;2.00;;;;;;;1.52;84.36;91568.81;4962374;28;20400;-86
2021/12/26 07:34:31;;;;;;;4.20;2.03;;;;;;;1.85;84.05;91603.00;4985342;28;20540;-87
2021/12/26 07:37:28;;;;;;;3.83;1.90;;;;;;;1.86;83.47;91578.72;4976995;28;20110;-86
2021/12/26 07:40:21;;;;;;;3.78;1.70;;;;;;;1.97;82.81;91574.38;4944629;28;20042;-90
2021/12/26 07:43:20;;;;;;;4.07;1.65;;;;;;;2.79;81.67;91620.91;4961231;28;20046;-87
2021/12/26 07:46:26;;;;;;;4.38;1.70;;;;;;;4.71;78.11;91622.25;4911531;29;20060;-89
2021/12/26 07:49:32;;;;;;;3.00;1.80;;;;;;;6.62;71.34;91595.75;4912734;28;20130;-88
2021/12/26 07:52:51;;;;;;;;;;;;;;;;;;;;;
2021/12/26 07:56:25;;;;;;;;;;;;;;;;;;;;;
2021/12/26 08:03:39;;;;;;;;;;;;;;;;;;;;;
2021/12/26 08:10:36;;;;;;;4.28;2.42;;;;;;;17.06;37.34;91571.72;4863637;29;20186;-90
2021/12/26 08:13:31;;;;;;;7.13;2.30;;;;;;;18.45;36.32;91589.25;4836823;29;20094;-89
2021/12/26 08:16:19;;;;;;;;;;;;;;;;;;;;;
2021/12/26 08:19:33;;;;;;;5.90;2.47;;;;;;;20.22;31.83;91563.63;4959054;28;20055;-88
2021/12/26 08:22:39;;;;;;;;;;;;;;;;;;;;;
2021/12/26 08:28:34;;;;;;;2.25;1.38;;;;;;;22.49;26.42;91599.94;4957967;28;20047;-89
2021/12/26 08:31:17;;;;;;;2.22;1.30;;;;;;;22.79;26.47;91546.19;4958011;29;20118;-88
2021/12/26 08:37:31;;;;;;;;;;;;;;;;;;;;;
2021/12/26 08:40:24;;;;;;;3.60;2.17;;;;;;;22.28;25.02;91555.38;4965450;28;20461;-88
2021/12/26 08:43:36;;;;;;;4.28;2.17;;;;;;;21.20;26.13;91611.00;4969880;28;20047;-88
2021/12/26 08:46:55;;;;;;;;;;;;;;;;;;;;;
2021/12/26 08:49:54;;;;;;;5.03;2.70;;;;;;;21.71;25.27;91564.81;4960996;28;20050;-91
2021/12/26 08:56:05;;;;;;;9.20;4.55;;;;;;;21.78;25.12;91564.81;4951681;28;20077;-88
2021/12/26 09:02:40;;;;;;;10.45;6.88;;;;;;;17.80;31.00;91592.72;4911706;28;20101;-88
2021/12/26 09:10:13;;;;;;;;;;;;;;;;;;;;;
2021/12/26 09:16:25;;;;;;;4.65;2.30;;;;;;;20.52;28.00;91581.31;4976181;28;20070;-89
2021/12/26 09:19:42;;;;;;;;;;;;;;;;;;;;;
2021/12/26 09:22:15;;;;;;;3.58;1.80;;;;;;;23.91;23.33;91608.72;4942590;28;20043;-89
2021/12/26 09:25:17;;;;;;;6.63;2.80;;;;;;;24.21;22.94;91586.81;4942340;29;20407;-88
2021/12/26 09:28:19;;;;;;;;;;;;;;;;;;;;;
2021/12/26 09:31:10;;;;;;;180.88;77.25;;;;;;;21.39;25.16;91586.75;4976673;28;20026;-89
2021/12/26 09:34:19;;;;;;;;;;;;;;;;;;;;;
2021/12/26 09:40:38;;;;;;;;;;;;;;;;;;;;;
2021/12/26 09:43:15;;;;;;;4.00;2.35;;;;;;;16.02;32.13;91596.59;4957575;28;20101;-88
2021/12/26 09:46:09;;;;;;;6.43;3.45;;;;;;;15.11;33.90;91628.16;4960206;28;20134;-88
2021/12/26 09:49:09;;;;;;;5.13;2.50;;;;;;;14.60;33.65;91596.97;4942621;29;20036;-88
2021/12/26 09:52:05;;;;;;;5.85;2.80;;;;;;;14.26;36.55;91633.16;4942426;29;20043;-90
2021/12/26 09:54:59;;;;;;;;;;;;;;;;;;;;;
2021/12/26 09:57:53;;;;;;;31.08;12.63;;;;;;;12.81;38.35;91599.00;4988566;28;20056;-89
2021/12/26 10:00:47;;;;;;;10.43;5.53;;;;;;;13.02;38.08;91626.03;4994246;28;20038;-89
2021/12/26 10:03:40;;;;;;;5.80;2.95;;;;;;;13.61;38.27;91658.50;4993798;28;20046;-89
2021/12/26 10:06:42;;;;;;;7.38;3.05;;;;;;;13.23;37.59;91631.28;4939700;29;20043;-90
2021/12/26 10:09:34;;;;;;;;;;;;;;;;;;;;;
2021/12/26 10:12:30;;;;;;;;;;;;;;;;;;;;;
2021/12/26 10:15:12;;;;;;;5.97;3.42;;;;;;;13.29;39.44;91581.94;4964814;28;20057;-89
2021/12/26 10:22:40;;;;;;;3.80;2.20;;;;;;;13.25;40.03;91636.97;4844979;29;20057;-89
2021/12/26 10:25:14;;;;;;;5.55;2.58;;;;;;;13.33;40.64;91635.41;4916140;29;20036;-89
2021/12/26 10:27:46;;;;;;;5.78;3.38;;;;;;;13.51;40.28;91636.78;4920804;29;20024;-89
2021/12/26 10:30:15;;;;;;;;;;;;;;;13.71;39.38;91631.78;4943635;28;20035;-92
2021/12/26 10:32:46;;;;;;;4.43;2.47;;;;;;;13.43;38.38;91629.75;4946825;28;19903;-88
2021/12/26 10:35:34;;;;;;;2.95;1.90;;;;;;;12.97;40.48;91618.38;4948563;29;20101;-89
2021/12/26 10:39:12;;;;;;;;;;;;;;;;;;;;;
2021/12/26 10:45:10;;;;;;;3.83;1.98;;;;;;;14.05;39.45;91624.59;4953879;28;20047;-89
2021/12/26 10:48:15;;;;;;;;;;;;;;;;;;;;;
2021/12/26 10:51:34;;;;;;;5.53;2.83;;;;;;;12.29;44.06;91632.41;4974836;28;20399;-88
2021/12/26 10:54:41;;;;;;;;;;;;;;;;;;;;;
2021/12/26 10:57:50;;;;;;;5.20;2.47;;;;;;;12.18;42.94;91570.88;4973942;28;20034;-89
2021/12/26 11:00:23;;;;;;;3.95;2.20;;;;;;;12.27;42.70;91576.84;4950586;28;20407;-89
2021/12/26 11:03:52;;;;;;;4.25;2.30;;;;;;;12.56;42.94;91571.84;4976744;28;20503;-90
2021/12/26 11:07:43;;;;;;;3.90;2.13;;;;;;;13.20;42.33;91626.69;4987686;28;20042;-88
2021/12/26 11:10:40;;;;;;;4.38;2.50;;;;;;;13.30;42.36;91630.78;4984936;28;20034;-88
2021/12/26 11:13:32;;;;;;;5.13;2.42;;;;;;;13.16;41.69;91578.47;4972444;28;20034;-89
2021/12/26 11:20:48;;;;;;;2.92;1.80;;;;;;;12.55;43.66;91583.47;4917575;29;20066;-88
2021/12/26 11:32:29;;;;;;;6.68;3.08;;;;;;;12.06;45.93;91613.50;4897568;29;20046;-88
2021/12/26 11:35:03;;;;;;;6.90;3.78;;;;;;;11.60;46.72;91551.38;4864877;29;20044;-88
2021/12/26 11:38:01;;;;;;;6.05;3.58;;;;;;;12.17;45.64;91558.06;4960159;28;20062;-89
2021/12/26 11:41:00;;;;;;;7.32;3.90;;;;;;;12.31;45.56;91595.31;4992681;28;20057;-89
2021/12/26 11:44:18;;;;;;;;;;;;;;;;;;;;;
2021/12/26 11:54:58;;;;;;;;;;;;;;;12.63;44.85;91604.41;4997650;23;20066;-82
2021/12/26 11:57:44;;;;;;;8.10;3.15;;;;;;;12.56;45.22;91612.00;4956583;28;19922;-81
2021/12/26 12:00:12;;;;;;;5.32;3.15;;;;;;;12.14;46.23;91606.69;4998619;28;20096;-80
2021/12/26 12:02:44;;;;;;;6.47;3.70;;;;;;;11.91;46.81;91600.94;4978095;28;20043;-80
2021/12/26 12:05:37;;;;;;;8.70;3.92;;;;;;;11.36;48.18;91597.22;4960966;28;20027;-80
2021/12/26 12:08:24;;;;;;;6.15;3.55;;;;;;;10.92;48.99;91604.38;4966456;28;20484;-80
2021/12/26 12:10:52;;;;;;;6.75;3.70;;;;;;;11.01;49.23;91601.72;4964403;28;20043;-80
2021/12/26 12:13:27;;;;;;;7.90;4.15;;;;;;;11.41;48.67;91607.53;4981465;28;20450;-79
2021/12/26 12:15:55;;;;;;;7.65;4.28;;;;;;;11.21;48.61;91595.88;4972267;28;20031;-78
2021/12/26 12:18:36;;;;;;;7.63;3.97;;;;;;;11.32;48.91;91591.06;4965610;28;20042;-80
2021/12/26 12:21:12;;;;;;;4.78;2.90;;;;;;;10.13;50.90;91590.44;4955942;28;20033;-80
2021/12/26 12:24:02;;;;;;;7.65;4.03;;;;;;;9.60;53.54;91588.72;4960412;28;20086;-79
2021/12/26 12:26:43;;;;;;;8.70;3.75;;;;;;;9.55;53.65;91592.22;4991682;28;20030;-79
2021/12/26 12:29:10;;;;;;;8.25;4.15;;;;;;;10.14;51.91;91588.59;4952603;28;20066;-79
2021/12/26 12:31:36;;;;;;;5.72;3.65;;;;;;;10.43;51.03;91588.03;4977833;28;20038;-78
2021/12/26 12:34:09;;;;;;;6.28;4.10;;;;;;;10.26;51.42;91582.75;4941692;29;20045;-79
2021/12/26 12:36:41;;;;;;;7.35;3.20;;;;;;;10.18;51.18;91592.13;4959465;29;20047;-80
2021/12/26 12:39:15;;;;;;;;;;;;;;;10.53;50.82;91592.97;4970758;28;20035;-80
2021/12/26 12:41:44;;;;;;;5.85;2.88;;;;;;;10.85;49.06;91593.59;4950693;28;19918;-79
2021/12/26 12:44:34;;;;;;;5.47;3.05;;;;;;;10.79;48.42;91589.59;4977176;28;20505;-79
2021/12/26 12:47:13;;;;;;;4.30;2.40;;;;;;;10.45;49.87;91588.50;4971980;28;20028;-79
2021/12/26 12:49:54;;;;;;;5.38;2.72;;;;;;;10.21;49.77;91578.44;4954390;28;20331;-79
2021/12/26 12:52:50;;;;;;;5.38;2.60;;;;;;;10.47;48.96;91590.78;4976198;28;20415;-78
2021/12/26 12:55:40;;;;;;;5.45;2.53;;;;;;;10.67;48.79;91592.81;4939788;29;20047;-80
2021/12/26 12:58:23;;;;;;;4.97;2.40;;;;;;;10.01;50.01;91595.47;4970588;28;20417;-80
2021/12/26 13:00:49;;;;;;;5.07;3.00;;;;;;;10.30;50.13;91594.19;4977542;28;20043;-80
2021/12/26 13:03:18;;;;;;;6.82;2.92;;;;;;;10.19;50.22;91594.41;4960264;28;20472;-80
2021/12/26 13:05:46;;;;;;;7.88;2.97;;;;;;;9.99;51.47;91589.75;4977005;28;20031;-81
2021/12/26 13:08:15;;;;;;;7.78;3.10;;;;;;;10.02;51.90;91597.03;4969333;28;20035;-80
2021/12/26 13:10:41;;;;;;;6.38;3.17;;;;;;;10.23;51.18;91599.06;4964869;28;20065;-79
2021/12/26 13:13:13;;;;;;;6.63;3.40;;;;;;;10.34;50.76;91595.13;4976081;28;20030;-79
2021/12/26 13:16:01;;;;;;;7.30;3.15;;;;;;;10.35;50.95;91591.41;4961159;28;20525;-80
2021/12/26 13:18:33;;;;;;;7.60;3.60;;;;;;;10.29;51.56;91582.16;4959488;28;20039;-80
2021/12/26 13:21:11;;;;;;;5.88;3.38;;;;;;;10.00;52.46;91599.16;4978271;28;20116;-80
2021/12/26 13:23:39;;;;;;;5.70;2.90;;;;;;;9.04;55.17;91592.72;4979297;28;20065;-81
2021/12/26 13:26:07;;;;;;;7.03;3.90;;;;;;;8.37;57.30;91601.25;4979481;28;20033;-80
2021/12/26 13:28:34;;;;;;;8.23;4.70;;;;;;;8.29;58.43;91594.91;4987959;28;20041;-79
2021/12/26 13:31:16;;;;;;;10.48;4.82;;;;;;;8.17;59.09;91597.97;4962581;28;20027;-80
2021/12/26 13:33:45;;;;;;;8.55;4.90;;;;;;;8.39;58.43;91602.47;4986797;28;20526;-80
2021/12/26 13:36:21;;;;;;;8.30;4.85;;;;;;;8.40;58.94;91606.69;4950506;28;20446;-80
2021/12/26 13:38:50;;;;;;;10.02;4.70;;;;;;;8.64;57.73;91610.84;4993894;28;20492;-80
2021/12/26 13:41:19;;;;;;;7.25;4.18;;;;;;;8.54;57.55;91611.84;4958113;28;20387;-80
2021/12/26 13:43:46;;;;;;;8.27;4.30;;;;;;;8.75;57.31;91606.94;4976412;28;20035;-80
2021/12/26 13:46:15;;;;;;;7.78;3.95;;;;;;;8.88;56.33;91610.59;4981438;28;20070;-80
2021/12/26 13:48:43;;;;;;;7.57;4.20;;;;;;;8.95;56.24;91611.69;4970833;28;20480;-81
2021/12/26 13:51:21;;;;;;;8.98;4.85;;;;;;;8.78;58.07;91616.81;4968997;28;20078;-79
2021/12/26 13:53:52;;;;;;;8.93;4.97;;;;;;;8.61;57.58;91621.88;4976300;28;20519;-81
2021/12/26 13:56:17;;;;;;;7.93;5.13;;;;;;;8.38;58.74;91621.81;4995127;28;20495;-82
2021/12/26 13:58:43;;;;;;;10.88;5.97;;;;;;;8.01;60.19;91626.19;4963563;28;20047;-80
2021/12/26 14:01:10;;;;;;;10.13;6.15;;;;;;;7.70;61.96;91626.78;4979393;28;20073;-80
2021/12/26 14:03:36;;;;;;;11.20;6.65;;;;;;;7.82;61.80;91633.34;4962453;28;20034;-80
2021/12/26 14:06:02;;;;;;;9.93;5.90;;;;;;;7.27;64.12;91636.63;4970134;28;20057;-80
2021/12/26 14:08:30;;;;;;;11.30;7.32;;;;;;;6.68;66.18;91628.44;4988789;28;20031;-80
2021/12/26 14:11:05;;;;;;;14.68;8.18;;;;;;;6.77;66.09;91628.59;4978866;28;20026;-82
2021/12/26 14:13:52;;;;;;;10.23;5.95;;;;;;;6.36;67.29;91635.13;4974455;28;20054;-80
2021/12/26 14:16:28;;;;;;;9.85;5.97;;;;;;;6.43;67.75;91638.16;4982787;28;20039;-80
2021/12/26 14:19:02;;;;;;;11.70;7.55;;;;;;;6.36;68.63;91642.16;4944479;28;20237;-79
2021/12/26 14:21:28;;;;;;;16.20;9.88;;;;;;;6.35;68.59;91641.41;4941745;28;20035;-81
2021/12/26 14:23:54;;;;;;;13.20;8.30;;;;;;;6.40;68.57;91643.91;4968442;28;20034;-79
2021/12/26 14:26:42;;;;;;;14.50;8.75;;;;;;;6.38;68.62;91643.44;4953687;28;20102;-83
2021/12/26 14:29:17;;;;;;;12.43;7.70;;;;;;;6.48;67.92;91645.09;4975255;28;20039;-81
2021/12/26 14:31:46;;;;;;;16.20;9.10;;;;;;;6.54;67.58;91648.44;4975337;28;20047;-80
2021/12/26 14:34:25;;;;;;;14.02;8.20;;;;;;;6.60;67.61;91645.47;4971015;28;20030;-77
2021/12/26 14:36:57;;;;;;;12.25;7.82;;;;;;;7.12;66.62;91648.09;4967409;28;20043;-80
2021/12/26 14:39:34;;;;;;;12.75;7.43;;;;;;;7.39;64.52;91646.63;4976929;28;20504;-81
2021/12/26 14:42:06;;;;;;;11.25;7.32;;;;;;;7.47;64.03;91651.16;4973079;28;20031;-79
2021/12/26 14:44:32;;;;;;;15.47;8.93;;;;;;;7.41;63.61;91645.28;4943660;28;20122;-81
2021/12/26 14:47:18;;;;;;;14.10;7.38;;;;;;;7.36;63.97;91641.97;4958780;28;20114;-81
2021/12/26 14:49:47;;;;;;;11.82;7.30;;;;;;;7.26;64.33;91651.50;4980525;28;20038;-81
2021/12/26 14:52:14;;;;;;;15.48;7.72;;;;;;;7.13;64.68;91654.81;4968693;28;20114;-80
2021/12/26 14:54:44;;;;;;;13.02;7.43;;;;;;;7.05;64.93;91666.66;4956632;28;20405;-81
2021/12/26 14:57:23;;;;;;;12.00;7.53;;;;;;;6.98;64.98;91663.66;4971622;28;20037;-80
2021/12/26 14:59:53;;;;;;;11.45;6.85;;;;;;;6.83;65.43;91662.03;4973851;28;20041;-79
2021/12/26 15:02:20;;;;;;;12.07;6.82;;;;;;;6.74;65.92;91663.75;4977989;28;20037;-78
2021/12/26 15:04:50;;;;;;;10.55;6.78;;;;;;;6.63;66.05;91670.13;4980219;28;20038;-79
2021/12/26 15:07:20;;;;;;;11.90;6.80;;;;;;;6.58;66.55;91675.41;4972666;28;20091;-78
2021/12/26 15:09:57;;;;;;;8.93;6.25;;;;;;;6.47;66.43;91675.53;4940343;28;20046;-80
2021/12/26 15:12:27;;;;;;;11.15;6.15;;;;;;;6.38;66.90;91682.41;4967634;28;20034;-80
2021/12/26 15:15:27;;;;;;;12.80;6.38;;;;;;;6.24;67.78;91678.97;4977545;28;20035;-79
2021/12/26 15:17:58;;;;;;;12.13;6.72;;;;;;;6.17;67.71;91686.31;4957205;28;20057;-80
2021/12/26 15:20:36;;;;;;;10.20;6.57;;;;;;;6.11;68.03;91687.44;4949426;28;20039;-79
2021/12/26 15:23:21;;;;;;;11.45;6.55;;;;;;;5.94;68.88;91688.63;4953559;28;20173;-79
2021/12/26 15:26:12;;;;;;;13.88;6.90;;;;;;;5.85;68.83;91690.25;4963616;28;20039;-81
2021/12/26 15:28:39;;;;;;;12.00;7.50;;;;;;;5.79;69.01;91691.38;4977419;28;20038;-80
2021/12/26 15:31:17;;;;;;;11.40;7.30;;;;;;;5.64;69.57;91682.69;4968463;28;20064;-81
2021/12/26 15:33:51;;;;;;;13.07;7.32;;;;;;;5.57;70.20;91687.44;4979323;28;20114;-81
2021/12/26 15:36:35;;;;;;;13.27;8.15;;;;;;;5.41;70.67;91686.03;4965212;28;20107;-80
2021/12/26 15:39:11;;;;;;;11.48;7.30;;;;;;;5.29;71.06;91680.41;4960982;28;20035;-81
2021/12/26 15:41:41;;;;;;;11.63;7.20;;;;;;;5.24;70.95;91683.81;4956712;28;20067;-81
2021/12/26 15:44:08;;;;;;;11.38;6.57;;;;;;;5.19;70.98;91695.03;4971150;28;20038;-82
2021/12/26 15:46:38;;;;;;;12.88;6.97;;;;;;;5.04;71.32;91695.13;4964164;28;20032;-77
2021/12/26 15:49:25;;;;;;;12.70;7.43;;;;;;;4.91;71.43;91691.34;4968132;28;20118;-83
2021/12/26 15:51:51;;;;;;;12.98;6.78;;;;;;;4.80;71.87;91698.44;4964190;28;20030;-81
2021/12/26 15:54:17;;;;;;;13.52;8.32;;;;;;;4.71;72.02;91705.22;4941530;29;20114;-81
2021/12/26 15:56:44;;;;;;;15.35;8.80;;;;;;;4.65;72.30;91702.94;4961863;28;20050;-80
2021/12/26 15:59:12;;;;;;;12.15;7.15;;;;;;;4.57;72.72;91705.06;4980082;28;20034;-80
2021/12/26 16:01:39;;;;;;;11.43;6.90;;;;;;;4.49;72.26;91710.03;4958305;28;20113;-80
2021/12/26 16:04:06;;;;;;;13.15;6.68;;;;;;;4.42;72.64;91715.50;4971809;28;20031;-82
2021/12/26 16:06:32;;;;;;;18.50;9.27;;;;;;;4.35;73.17;91708.00;4944628;29;20489;-81
2021/12/26 16:08:58;;;;;;;16.40;7.68;;;;;;;4.28;73.73;91711.91;4969286;28;20445;-83
2021/12/26 16:11:25;;;;;;;12.95;6.88;;;;;;;4.21;73.75;91717.41;4980815;28;20161;-83
2021/12/26 16:13:52;;;;;;;10.30;5.60;;;;;;;4.13;74.10;91725.72;4982718;28;20031;-79
2021/12/26 16:16:18;;;;;;;9.05;5.53;;;;;;;4.10;74.92;91726.25;4971624;28;20538;-82
2021/12/26 16:19:04;;;;;;;9.00;5.30;;;;;;;4.07;75.03;91722.34;4995552;28;20065;-81
2021/12/26 16:21:30;;;;;;;10.68;6.45;;;;;;;3.98;75.23;91705.81;4984175;28;20022;-81
2021/12/26 16:23:56;;;;;;;13.43;7.40;;;;;;;3.97;75.91;91730.16;4985529;28;20408;-80
2021/12/26 16:26:24;;;;;;;15.85;8.80;;;;;;;3.93;76.51;91716.97;4982081;28;20038;-79
2021/12/26 16:28:50;;;;;;;15.27;9.20;;;;;;;3.96;76.62;91726.00;4968480;28;20030;-80
2021/12/26 16:31:16;;;;;;;18.15;9.02;;;;;;;3.84;76.41;91710.78;4981953;28;20118;-81
2021/12/26 16:33:42;;;;;;;18.88;11.30;;;;;;;3.87;75.78;91722.41;4987213;28;20050;-80
2021/12/26 16:36:08;;;;;;;16.80;8.95;;;;;;;3.81;76.20;91721.66;4983690;28;20043;-81
2021/12/26 16:38:34;;;;;;;15.88;8.18;;;;;;;3.77;76.60;91723.22;4977844;28;20038;-81
2021/12/26 16:41:02;;;;;;;15.85;8.45;;;;;;;3.62;77.05;91718.84;4948066;28;20043;-79
2021/12/26 16:43:28;;;;;;;14.73;8.00;;;;;;;3.69;77.41;91732.31;4979847;28;20046;-80
2021/12/26 16:45:53;;;;;;;15.77;9.93;;;;;;;3.65;77.74;91730.50;4977160;28;20049;-79
2021/12/26 16:48:21;;;;;;;16.83;9.50;;;;;;;3.64;77.72;91723.78;4946389;29;20174;-78
2021/12/26 16:50:46;;;;;;;19.45;10.60;;;;;;;3.56;77.61;91722.50;4972682;28;20117;-79
2021/12/26 16:53:12;;;;;;;18.67;9.95;;;;;;;3.53;77.99;91728.97;4956320;28;20459;-78
2021/12/26 16:55:38;;;;;;;16.33;9.93;;;;;;;3.47;78.45;91724.84;4958649;28;20539;-80
2021/12/26 16:58:05;;;;;;;18.27;10.43;;;;;;;3.43;78.54;91718.63;4946837;28;20061;-80
2021/12/26 17:00:31;;;;;;;17.17;8.38;;;;;;;3.40;78.37;91726.91;4945830;28;20054;-79
2021/12/26 17:02:58;;;;;;;15.07;9.73;;;;;;;3.36;78.49;91719.94;4955080;29;20039;-80
2021/12/26 17:05:24;;;;;;;16.20;9.15;;;;;;;3.34;78.97;91723.53;4944418;29;20039;-78
2021/12/26 17:07:50;;;;;;;47.75;20.27;;;;;;;3.33;79.20;91729.78;4955573;29;20027;-80
2021/12/26 17:10:17;;;;;;;63.33;28.52;;;;;;;3.32;78.84;91727.44;4953945;28;20058;-80
2021/12/26 17:12:43;;;;;;;60.13;30.00;;;;;;;3.23;78.85;91723.81;4963934;28;20066;-80
2021/12/26 17:15:09;;;;;;;89.93;39.60;;;;;;;3.31;79.38;91741.38;4966348;28;20041;-80
2021/12/26 17:17:35;;;;;;;38.33;20.85;;;;;;;3.29;79.38;91741.66;4932590;28;20046;-78
2021/12/26 17:20:01;;;;;;;31.85;17.52;;;;;;;3.28;79.80;91741.91;4972965;28;20047;-80
2021/12/26 17:22:27;;;;;;;25.95;13.93;;;;;;;3.26;79.97;91747.34;4931791;29;20035;-80
2021/12/26 17:24:52;;;;;;;44.70;18.63;;;;;;;3.23;79.88;91749.69;4975109;28;20043;-79
2021/12/26 17:27:26;;;;;;;38.58;19.92;;;;;;;3.17;80.27;91741.13;4978366;28;20121;-79
2021/12/26 17:29:53;;;;;;;30.80;15.27;;;;;;;3.13;80.36;91740.88;4951414;28;20034;-80
2021/12/26 17:32:21;;;;;;;23.85;13.20;;;;;;;3.10;80.44;91743.97;4979379;28;20302;-79
2021/12/26 17:34:47;;;;;;;19.70;11.80;;;;;;;3.10;80.64;91751.72;4948650;28;20062;-77
2021/12/26 17:37:13;;;;;;;23.73;13.40;;;;;;;3.08;80.58;91753.03;4980684;28;20031;-78
2021/12/26 17:39:41;;;;;;;23.88;13.02;;;;;;;3.08;80.85;91747.84;4980082;28;20050;-78
2021/12/26 17:42:10;;;;;;;20.80;11.77;;;;;;;3.06;81.04;91748.13;4979472;28;20473;-78
2021/12/26 17:44:35;;;;;;;20.52;10.77;;;;;;;3.05;81.23;91743.97;4977717;28;20041;-78
2021/12/26 17:47:01;;;;;;;18.58;10.40;;;;;;;3.06;81.62;91748.13;4956640;28;20030;-80
2021/12/26 17:49:27;;;;;;;20.85;10.82;;;;;;;3.06;81.25;91744.75;4968639;28;20078;-78
2021/12/26 17:51:53;;;;;;;21.77;11.10;;;;;;;3.04;81.45;91757.16;4959041;28;20035;-78
2021/12/26 17:54:19;;;;;;;22.60;12.10;;;;;;;2.99;81.34;91750.16;4961900;28;20050;-78
2021/12/26 17:56:46;;;;;;;26.60;11.75;;;;;;;2.97;81.20;91754.81;4969297;28;20042;-79
2021/12/26 17:59:14;;;;;;;21.23;11.10;;;;;;;2.96;81.71;91749.94;4979404;28;20026;-79
2021/12/26 18:01:40;;;;;;;24.40;11.77;;;;;;;2.94;82.14;91750.19;4961619;28;20110;-79